createdAt,value
2018-05-06T00:01:51.950Z,66.30
2018-05-06T00:04:20.955Z,66.25
2018-05-06T00:06:49.315Z,66.98
2018-05-06T00:09:18.039Z,66.58
2018-05-06T00:11:46.964Z,67.53
2018-05-06T00:14:15.238Z,68.14
2018-05-06T00:16:45.054Z,68.69
2018-05-06T00:19:13.373Z,69.21
2018-05-06T00:21:41.658Z,68.17
2018-05-06T00:24:10.024Z,67.94
2018-05-06T00:26:38.885Z,67.79
2018-05-06T00:29:07.333Z,68.08
2018-05-06T00:31:37.115Z,67.98
2018-05-06T00:34:06.002Z,68.34
2018-05-06T00:36:35.188Z,67.97
2018-05-06T00:39:03.645Z,68.30
2018-05-06T00:41:31.974Z,68.04
2018-05-06T00:44:00.933Z,68.61
2018-05-06T00:46:29.323Z,69.24
2018-05-06T00:48:57.600Z,69.97
2018-05-06T00:51:26.445Z,70.05
2018-05-06T00:53:54.787Z,70.29
2018-05-06T00:56:23.098Z,70.49
2018-05-06T00:58:51.430Z,70.81
2018-05-06T01:01:19.823Z,71.17
2018-05-06T01:03:48.434Z,71.47
2018-05-06T01:06:16.726Z,71.82
2018-05-06T01:08:45.235Z,71.74
2018-05-06T01:11:13.578Z,70.77
2018-05-06T01:13:42.635Z,71.49
2018-05-06T01:16:11.176Z,72.35
2018-05-06T01:18:39.459Z,72.10
2018-05-06T01:21:07.751Z,72.41
2018-05-06T01:23:36.062Z,71.52
2018-05-06T01:26:04.416Z,72.65
2018-05-06T01:28:32.726Z,71.95
2018-05-06T01:31:01.198Z,71.94
2018-05-06T01:33:29.494Z,69.89
2018-05-06T01:35:57.851Z,69.15
2018-05-06T01:38:26.307Z,68.87
2018-05-06T01:40:55.361Z,69.54
2018-05-06T01:43:23.650Z,69.01
2018-05-06T01:45:52.227Z,68.81
2018-05-06T01:48:21.669Z,69.17
2018-05-06T01:50:50.006Z,69.73
2018-05-06T01:53:18.363Z,70.17
2018-05-06T01:55:46.933Z,71.47
2018-05-06T01:58:15.273Z,71.86
2018-05-06T02:00:43.634Z,72.65
2018-05-06T02:03:12.331Z,73.28
2018-05-06T02:05:41.450Z,73.53
2018-05-06T02:08:09.736Z,74.36
2018-05-06T02:10:38.069Z,73.71
2018-05-06T02:13:07.145Z,73.37
2018-05-06T02:15:35.442Z,73.32
2018-05-06T02:18:03.759Z,73.87
2018-05-06T02:20:32.059Z,73.53
2018-05-06T02:23:00.352Z,73.40
2018-05-06T02:25:29.446Z,73.58
2018-05-06T02:27:57.749Z,74.15
2018-05-06T02:30:29.480Z,74.41
2018-05-06T02:32:59.250Z,73.73
2018-05-06T02:35:27.849Z,73.95
2018-05-06T02:37:57.296Z,72.71
2018-05-06T02:40:25.730Z,72.54
2018-05-06T02:42:54.397Z,72.61
2018-05-06T02:45:23.203Z,72.09
2018-05-06T02:47:51.629Z,72.28
2018-05-06T02:50:19.903Z,73.13
2018-05-06T02:52:48.242Z,73.63
2018-05-06T02:55:17.063Z,72.62
2018-05-06T02:57:45.452Z,73.00
2018-05-06T03:00:14.074Z,74.62
2018-05-06T03:02:42.355Z,74.27
2018-05-06T03:05:10.683Z,75.19
2018-05-06T03:07:38.999Z,74.62
2018-05-06T03:10:07.319Z,74.54
2018-05-06T03:12:35.603Z,72.97
2018-05-06T03:15:03.914Z,73.69
2018-05-06T03:17:32.199Z,73.36
2018-05-06T03:20:01.023Z,72.65
2018-05-06T03:22:29.311Z,72.14
2018-05-06T03:24:57.629Z,71.53
2018-05-06T03:27:25.918Z,70.90
2018-05-06T03:29:54.760Z,70.80
2018-05-06T03:32:23.075Z,70.35
2018-05-06T03:34:51.384Z,70.73
2018-05-06T03:37:20.021Z,70.45
2018-05-06T03:39:48.303Z,70.14
2018-05-06T03:42:16.604Z,70.67
2018-05-06T03:44:44.911Z,70.65
2018-05-06T03:47:13.187Z,71.87
2018-05-06T03:49:41.525Z,72.70
2018-05-06T03:52:09.858Z,73.58
2018-05-06T03:54:38.748Z,72.06
2018-05-06T03:57:24.638Z,72.26
2018-05-06T04:00:11.036Z,72.07
2018-05-06T04:02:39.959Z,71.42
2018-05-06T04:05:08.242Z,71.59
2018-05-06T04:07:36.785Z,70.85
2018-05-06T04:10:05.070Z,71.12
2018-05-06T04:12:33.350Z,70.74
2018-05-06T04:15:02.143Z,71.35
2018-05-06T04:17:30.430Z,72.25
2018-05-06T04:19:59.103Z,72.50
2018-05-06T04:22:27.430Z,71.98
2018-05-06T04:24:56.390Z,71.91
2018-05-06T04:27:24.678Z,72.50
2018-05-06T04:29:53.207Z,72.92
2018-05-06T04:32:21.502Z,71.91
2018-05-06T04:34:49.807Z,71.18
2018-05-06T04:37:19.504Z,70.63
2018-05-06T04:39:47.835Z,69.51
2018-05-06T04:42:16.546Z,68.59
2018-05-06T04:44:45.241Z,67.74
2018-05-06T04:47:13.566Z,66.02
2018-05-06T04:49:41.852Z,64.30
2018-05-06T04:52:10.135Z,62.01
2018-05-06T04:54:38.454Z,60.56
2018-05-06T04:57:06.738Z,59.11
2018-05-06T04:59:34.794Z,58.31
2018-05-06T05:02:03.150Z,55.81
2018-05-06T05:04:31.738Z,54.27
2018-05-06T05:07:00.560Z,52.65
2018-05-06T05:09:28.892Z,51.39
2018-05-06T05:11:57.799Z,50.22
2018-05-06T05:14:26.507Z,49.42
2018-05-06T05:16:54.839Z,47.48
2018-05-06T05:19:23.123Z,46.75
2018-05-06T05:21:51.815Z,44.58
2018-05-06T05:24:20.188Z,45.58
2018-05-06T05:26:49.131Z,44.18
2018-05-06T05:29:17.412Z,44.18
2018-05-06T05:31:45.737Z,44.09
2018-05-06T05:34:14.015Z,43.47
2018-05-06T05:36:42.294Z,42.75
2018-05-06T05:39:10.606Z,43.10
2018-05-06T05:41:39.503Z,42.40
2018-05-06T05:44:07.782Z,41.34
2018-05-06T05:46:36.190Z,40.93
2018-05-06T05:49:04.475Z,40.50
2018-05-06T05:51:33.406Z,40.08
2018-05-06T05:54:01.746Z,39.93
2018-05-06T05:56:30.034Z,40.92
2018-05-06T05:58:58.315Z,39.96
2018-05-06T06:01:26.426Z,40.50
2018-05-06T06:03:55.290Z,39.05
2018-05-06T06:06:23.568Z,38.17
2018-05-06T06:08:51.900Z,38.27
2018-05-06T06:11:20.723Z,38.59
2018-05-06T06:13:49.003Z,37.60
2018-05-06T06:16:17.335Z,38.11
2018-05-06T06:18:45.623Z,38.13
2018-05-06T06:21:14.673Z,38.25
2018-05-06T06:23:43.000Z,37.97
2018-05-06T06:26:12.046Z,38.04
2018-05-06T06:28:40.331Z,38.47
2018-05-06T06:31:08.667Z,37.69
2018-05-06T06:33:37.150Z,36.62
2018-05-06T06:36:05.519Z,35.27
2018-05-06T06:38:33.835Z,35.21
2018-05-06T06:41:02.118Z,34.35
2018-05-06T06:43:30.395Z,32.26
2018-05-06T06:45:58.723Z,34.28
2018-05-06T06:48:27.003Z,34.11
2018-05-06T06:50:55.094Z,33.38
2018-05-06T06:53:23.418Z,31.71
2018-05-06T06:55:52.072Z,31.72
2018-05-06T06:58:20.281Z,31.98
2018-05-06T07:00:48.635Z,31.27
2018-05-06T07:03:17.367Z,31.95
2018-05-06T07:05:46.428Z,30.46
2018-05-06T07:08:14.947Z,30.95
2018-05-06T07:10:43.868Z,31.01
2018-05-06T07:13:12.190Z,32.71
2018-05-06T07:15:40.475Z,32.85
2018-05-06T07:18:09.210Z,31.28
2018-05-06T07:20:37.540Z,32.49
2018-05-06T07:23:05.822Z,35.53
2018-05-06T07:25:35.088Z,34.06
2018-05-06T07:28:03.934Z,33.05
2018-05-06T07:30:32.464Z,32.11
2018-05-06T07:33:00.867Z,31.45
2018-05-06T07:35:29.155Z,31.50
2018-05-06T07:37:58.210Z,30.85
2018-05-06T07:40:26.520Z,30.82
2018-05-06T07:42:54.946Z,31.00
2018-05-06T07:45:23.234Z,32.53
2018-05-06T07:47:51.599Z,30.00
2018-05-06T07:50:22.672Z,29.09
2018-05-06T07:52:50.980Z,27.73
2018-05-06T07:55:19.263Z,27.15
2018-05-06T07:57:47.611Z,28.17
2018-05-06T08:00:15.887Z,29.10
2018-05-06T08:02:44.463Z,29.42
2018-05-06T08:05:12.908Z,29.84
2018-05-06T08:07:41.196Z,29.13
2018-05-06T08:10:09.471Z,29.61
2018-05-06T08:12:37.779Z,28.41
2018-05-06T08:15:06.614Z,28.82
2018-05-06T08:17:35.418Z,28.14
2018-05-06T08:20:03.770Z,27.97
2018-05-06T08:22:32.051Z,28.43
2018-05-06T08:25:00.336Z,29.64
2018-05-06T08:27:28.668Z,28.62
2018-05-06T08:29:56.955Z,27.42
2018-05-06T08:32:25.243Z,26.31
2018-05-06T08:34:53.580Z,23.84
2018-05-06T08:37:21.871Z,27.69
2018-05-06T08:39:50.150Z,28.94
2018-05-06T08:42:18.863Z,26.03
2018-05-06T08:44:47.146Z,25.53
2018-05-06T08:47:15.423Z,25.32
2018-05-06T08:49:43.940Z,24.00
2018-05-06T08:52:12.266Z,24.83
2018-05-06T08:54:40.555Z,23.85
2018-05-06T08:57:08.870Z,22.59
2018-05-06T08:59:37.191Z,23.35
2018-05-06T09:02:05.443Z,23.83
2018-05-06T09:04:33.983Z,22.92
2018-05-06T09:07:02.367Z,22.85
2018-05-06T09:09:30.651Z,23.16
2018-05-06T09:11:59.110Z,21.85
2018-05-06T09:14:27.872Z,22.84
2018-05-06T09:16:56.240Z,21.62
2018-05-06T09:19:24.548Z,21.83
2018-05-06T09:21:52.852Z,23.43
2018-05-06T09:24:21.363Z,25.76
2018-05-06T09:26:50.032Z,26.71
2018-05-06T09:29:18.335Z,24.61
2018-05-06T09:31:46.669Z,22.90
2018-05-06T09:34:15.027Z,25.56
2018-05-06T09:36:43.595Z,23.98
2018-05-06T09:39:11.880Z,23.38
2018-05-06T09:41:40.208Z,22.56
2018-05-06T09:44:08.504Z,22.60
2018-05-06T09:46:36.786Z,20.22
2018-05-06T09:49:05.351Z,19.03
2018-05-06T09:51:33.631Z,24.43
2018-05-06T09:54:01.910Z,20.58
2018-05-06T09:56:30.258Z,22.16
2018-05-06T09:58:58.942Z,21.06
2018-05-06T10:01:27.390Z,22.77
2018-05-06T10:03:56.279Z,21.94
2018-05-06T10:06:24.578Z,21.59
2018-05-06T10:08:53.367Z,21.28
2018-05-06T10:11:21.651Z,22.62
2018-05-06T10:13:49.943Z,22.52
2018-05-06T10:16:18.251Z,19.62
2018-05-06T10:18:46.975Z,18.19
2018-05-06T10:21:15.297Z,18.84
2018-05-06T10:23:43.579Z,16.13
2018-05-06T10:26:11.885Z,14.94
2018-05-06T10:28:40.198Z,16.50
2018-05-06T10:31:10.257Z,17.40
2018-05-06T10:33:38.553Z,17.14
2018-05-06T10:36:07.407Z,16.38
2018-05-06T10:38:35.692Z,16.44
2018-05-06T10:41:03.979Z,15.94
2018-05-06T10:43:32.278Z,16.01
2018-05-06T10:46:00.847Z,18.35
2018-05-06T10:48:29.659Z,16.93
2018-05-06T10:50:58.002Z,18.50
2018-05-06T10:53:26.767Z,19.57
2018-05-06T10:55:55.042Z,16.77
2018-05-06T10:58:23.357Z,18.58
2018-05-06T11:00:51.641Z,16.80
2018-05-06T11:03:19.926Z,15.86
2018-05-06T11:05:48.239Z,15.41
2018-05-06T11:08:16.578Z,13.80
2018-05-06T11:10:45.284Z,13.39
2018-05-06T11:13:13.673Z,13.31
2018-05-06T11:15:41.952Z,15.81
2018-05-06T11:18:10.297Z,18.61
2018-05-06T11:20:38.967Z,17.22
2018-05-06T11:23:08.568Z,17.76
2018-05-06T11:25:36.887Z,16.81
2018-05-06T11:28:05.167Z,18.51
2018-05-06T11:30:33.448Z,18.04
2018-05-06T11:33:01.768Z,18.13
2018-05-06T11:35:30.059Z,18.19
2018-05-06T11:37:58.334Z,17.08
2018-05-06T11:40:27.676Z,19.33
2018-05-06T11:42:55.958Z,19.02
2018-05-06T11:45:25.135Z,19.92
2018-05-06T11:47:53.478Z,22.92
2018-05-06T11:50:22.263Z,21.54
2018-05-06T11:52:50.552Z,19.70
2018-05-06T11:55:18.891Z,20.94
2018-05-06T11:57:47.935Z,20.04
2018-05-06T12:00:17.492Z,18.48
2018-05-06T12:02:46.713Z,16.92
2018-05-06T12:05:15.002Z,17.66
2018-05-06T12:07:43.374Z,18.88
2018-05-06T12:10:11.703Z,18.24
2018-05-06T12:12:39.988Z,17.59
2018-05-06T12:15:08.274Z,16.24
2018-05-06T12:17:36.608Z,16.76
2018-05-06T12:20:05.515Z,16.87
2018-05-06T12:22:35.427Z,17.16
2018-05-06T12:25:04.425Z,16.25
2018-05-06T12:27:32.714Z,17.08
2018-05-06T12:30:01.505Z,19.19
2018-05-06T12:32:29.841Z,18.06
2018-05-06T12:34:58.339Z,17.70
2018-05-06T12:37:26.627Z,17.06
2018-05-06T12:39:54.943Z,17.03
2018-05-06T12:42:23.237Z,16.50
2018-05-06T12:44:51.535Z,15.49
2018-05-06T12:47:19.844Z,16.93
2018-05-06T12:49:48.127Z,16.20
2018-05-06T12:52:16.437Z,16.43
2018-05-06T12:54:46.007Z,15.31
2018-05-06T12:57:14.290Z,13.55
2018-05-06T12:59:42.603Z,15.39
2018-05-06T13:02:10.882Z,17.74
2018-05-06T13:04:40.175Z,17.99
2018-05-06T13:07:08.495Z,16.71
2018-05-06T13:09:36.778Z,16.13
2018-05-06T13:12:05.082Z,15.04
2018-05-06T13:14:33.355Z,14.84
2018-05-06T13:17:01.636Z,16.18
2018-05-06T13:19:29.962Z,17.67
2018-05-06T13:21:58.919Z,15.92
2018-05-06T13:24:27.202Z,14.53
2018-05-06T13:26:55.574Z,15.84
2018-05-06T13:29:23.858Z,15.11
2018-05-06T13:31:52.138Z,14.05
2018-05-06T13:34:20.470Z,14.55
2018-05-06T13:36:49.414Z,13.68
2018-05-06T13:39:17.695Z,13.85
2018-05-06T13:41:47.355Z,16.38
2018-05-06T13:44:15.663Z,14.87
2018-05-06T13:46:45.162Z,14.01
2018-05-06T13:49:13.895Z,14.55
2018-05-06T13:51:42.174Z,15.29
2018-05-06T13:54:10.455Z,14.43
2018-05-06T13:56:38.810Z,15.76
2018-05-06T13:59:07.135Z,15.96
2018-05-06T14:01:35.415Z,15.52
2018-05-06T14:04:03.757Z,17.32
2018-05-06T14:06:32.188Z,17.51
2018-05-06T14:09:00.479Z,18.43
2018-05-06T14:11:28.795Z,19.28
2018-05-06T14:13:57.371Z,18.43
2018-05-06T14:16:25.651Z,17.26
2018-05-06T14:18:53.987Z,18.94
2018-05-06T14:21:22.281Z,18.60
2018-05-06T14:23:50.625Z,18.71
2018-05-06T14:26:18.975Z,18.48
2018-05-06T14:28:47.035Z,17.37
2018-05-06T14:31:15.323Z,16.76
2018-05-06T14:33:43.654Z,17.09
2018-05-06T14:36:12.355Z,17.89
2018-05-06T14:38:41.004Z,18.44
2018-05-06T14:41:09.326Z,18.35
2018-05-06T14:43:37.807Z,18.44
2018-05-06T14:46:06.099Z,19.88
2018-05-06T14:48:34.704Z,18.17
2018-05-06T14:51:03.387Z,16.60
2018-05-06T14:53:31.680Z,17.60
2018-05-06T14:56:00.068Z,18.11
2018-05-06T14:58:28.339Z,18.35
2018-05-06T15:00:56.632Z,17.39
2018-05-06T15:03:24.960Z,18.03
2018-05-06T15:05:53.251Z,16.75
2018-05-06T15:08:21.537Z,16.68
2018-05-06T15:10:50.082Z,15.87
2018-05-06T15:13:18.907Z,15.83
2018-05-06T15:15:47.273Z,16.04
2018-05-06T15:18:15.911Z,16.37
2018-05-06T15:20:44.964Z,17.11
2018-05-06T15:23:13.723Z,17.43
2018-05-06T15:25:42.158Z,17.10
2018-05-06T15:28:10.854Z,16.27
2018-05-06T15:30:39.162Z,16.78
2018-05-06T15:33:07.445Z,18.10
2018-05-06T15:35:35.729Z,17.19
2018-05-06T15:38:04.175Z,18.37
2018-05-06T15:40:32.454Z,17.43
2018-05-06T15:43:00.745Z,16.71
2018-05-06T15:45:29.059Z,16.41
2018-05-06T15:47:57.342Z,15.54
2018-05-06T15:50:26.457Z,15.88
2018-05-06T15:52:55.423Z,17.23
2018-05-06T15:55:23.715Z,17.67
2018-05-06T15:57:52.005Z,17.98
2018-05-06T16:00:20.579Z,18.88
2018-05-06T16:03:06.602Z,18.06
2018-05-06T16:05:34.919Z,18.96
2018-05-06T16:08:03.215Z,18.73
2018-05-06T16:10:31.549Z,17.59
2018-05-06T16:13:00.490Z,18.41
2018-05-06T16:15:28.783Z,19.27
2018-05-06T16:17:57.127Z,19.04
2018-05-06T16:20:25.583Z,18.82
2018-05-06T16:22:53.873Z,19.37
2018-05-06T16:25:22.187Z,18.64
2018-05-06T16:27:50.722Z,19.56
2018-05-06T16:30:19.019Z,20.09
2018-05-06T16:32:47.327Z,20.32
2018-05-06T16:35:15.614Z,20.45
2018-05-06T16:37:43.922Z,21.16
2018-05-06T16:40:12.271Z,20.99
2018-05-06T16:42:40.918Z,21.00
2018-05-06T16:45:09.950Z,21.02
2018-05-06T16:47:38.243Z,21.16
2018-05-06T16:50:06.551Z,21.08
2018-05-06T16:52:34.832Z,20.83
2018-05-06T16:55:03.411Z,20.87
2018-05-06T16:57:31.731Z,21.98
2018-05-06T17:00:00.015Z,22.17
2018-05-06T17:02:28.361Z,21.95
2018-05-06T17:04:56.639Z,22.28
2018-05-06T17:07:24.919Z,22.27
2018-05-06T17:09:53.227Z,22.41
2018-05-06T17:12:21.502Z,22.92
2018-05-06T17:14:49.786Z,23.48
2018-05-06T17:17:18.149Z,24.04
2018-05-06T17:19:46.463Z,23.60
2018-05-06T17:22:14.747Z,24.02
2018-05-06T17:24:43.075Z,23.93
2018-05-06T17:27:11.356Z,24.41
2018-05-06T17:29:39.742Z,25.01
2018-05-06T17:32:08.046Z,25.50
2018-05-06T17:34:37.070Z,25.01
2018-05-06T17:37:05.363Z,24.74
2018-05-06T17:39:33.693Z,24.70
2018-05-06T17:42:01.971Z,24.96
2018-05-06T17:44:30.251Z,24.52
2018-05-06T17:46:58.627Z,25.19
2018-05-06T17:49:28.187Z,25.41
2018-05-06T17:51:57.290Z,24.32
2018-05-06T17:54:25.626Z,25.11
2018-05-06T17:56:53.907Z,24.85
2018-05-06T17:59:22.182Z,25.44
2018-05-06T18:01:51.275Z,25.44
2018-05-06T18:04:19.561Z,25.46
2018-05-06T18:06:47.839Z,25.89
2018-05-06T18:09:16.171Z,26.18
2018-05-06T18:11:45.139Z,26.33
2018-05-06T18:14:13.426Z,26.50
2018-05-06T18:16:43.214Z,27.11
2018-05-06T18:19:11.500Z,27.06
2018-05-06T18:21:40.161Z,27.46
2018-05-06T18:24:08.486Z,27.61
2018-05-06T18:26:36.774Z,27.90
2018-05-06T18:29:05.834Z,28.15
2018-05-06T18:31:34.199Z,28.56
2018-05-06T18:34:02.479Z,28.67
2018-05-06T18:36:30.757Z,28.87
2018-05-06T18:38:59.847Z,29.15
2018-05-06T18:41:28.130Z,29.33
2018-05-06T18:43:56.604Z,29.93
2018-05-06T18:46:24.923Z,29.76
2018-05-06T18:48:53.207Z,29.91
2018-05-06T18:51:21.483Z,30.50
2018-05-06T18:53:49.817Z,30.55
2018-05-06T18:56:18.203Z,30.76
2018-05-06T18:58:47.306Z,31.04
2018-05-06T19:01:16.245Z,31.79
2018-05-06T19:03:44.878Z,31.34
2018-05-06T19:06:13.774Z,31.41
2018-05-06T19:08:42.471Z,31.67
2018-05-06T19:11:11.163Z,32.43
2018-05-06T19:13:39.441Z,32.03
2018-05-06T19:16:07.723Z,32.25
2018-05-06T19:18:36.050Z,34.01
2018-05-06T19:21:04.331Z,35.91
2018-05-06T19:23:32.675Z,36.64
2018-05-06T19:26:00.987Z,34.42
2018-05-06T19:28:30.131Z,34.49
2018-05-06T19:30:59.558Z,35.22
2018-05-06T19:33:27.847Z,36.31
2018-05-06T19:35:56.167Z,39.17
2018-05-06T19:38:24.875Z,37.33
2018-05-06T19:40:53.159Z,39.23
2018-05-06T19:43:21.507Z,36.68
2018-05-06T19:45:49.797Z,36.84
2018-05-06T19:48:18.071Z,38.38
2018-05-06T19:50:46.851Z,37.10
2018-05-06T19:53:15.218Z,37.36
2018-05-06T19:55:43.987Z,36.14
2018-05-06T19:58:13.325Z,38.09
2018-05-06T20:00:42.431Z,37.27
2018-05-06T20:03:11.353Z,39.06
2018-05-06T20:05:39.595Z,41.92
2018-05-06T20:08:08.904Z,36.43
2018-05-06T20:10:37.986Z,38.03
2018-05-06T20:13:06.913Z,37.53
2018-05-06T20:15:35.543Z,38.88
2018-05-06T20:18:03.826Z,45.08
2018-05-06T20:20:32.482Z,42.00
2018-05-06T20:23:01.225Z,42.39
2018-05-06T20:25:29.455Z,38.96
2018-05-06T20:27:57.566Z,39.57
2018-05-06T20:30:26.203Z,36.26
2018-05-06T20:32:55.634Z,39.12
2018-05-06T20:35:24.210Z,37.01
2018-05-06T20:37:53.949Z,38.62
2018-05-06T20:40:22.266Z,41.13
2018-05-06T20:42:50.600Z,38.26
2018-05-06T20:45:18.799Z,36.46
2018-05-06T20:47:47.050Z,38.22
2018-05-06T20:50:15.871Z,35.60
2018-05-06T20:52:45.158Z,38.15
2018-05-06T20:55:13.463Z,35.99
2018-05-06T20:57:41.972Z,38.22
2018-05-06T21:00:10.768Z,40.05
2018-05-06T21:02:39.055Z,38.25
2018-05-06T21:05:07.454Z,38.79
2018-05-06T21:07:36.103Z,38.82
2018-05-06T21:10:04.855Z,39.29
2018-05-06T21:12:33.323Z,39.20
2018-05-06T21:15:01.616Z,38.65
2018-05-06T21:17:29.725Z,39.67
2018-05-06T21:19:58.032Z,39.36
2018-05-06T21:22:26.331Z,39.59
2018-05-06T21:24:56.114Z,37.71
2018-05-06T21:27:25.206Z,37.46
2018-05-06T21:29:54.206Z,39.24
2018-05-06T21:32:23.280Z,38.46
2018-05-06T21:34:51.688Z,39.09
2018-05-06T21:37:20.667Z,40.80
2018-05-06T21:39:49.638Z,40.51
2018-05-06T21:42:17.919Z,41.42
2018-05-06T21:44:46.318Z,42.82
2018-05-06T21:47:14.604Z,43.68
2018-05-06T21:49:42.889Z,43.82
2018-05-06T21:52:11.191Z,44.28
2018-05-06T21:54:39.532Z,44.44
2018-05-06T21:57:09.126Z,44.05
2018-05-06T21:59:37.427Z,45.24
2018-05-06T22:02:05.755Z,48.22
2018-05-06T22:04:34.079Z,45.07
2018-05-06T22:07:02.943Z,45.49
2018-05-06T22:09:32.035Z,45.58
2018-05-06T22:12:00.343Z,45.45
2018-05-06T22:14:29.683Z,45.56
2018-05-06T22:16:57.965Z,45.56
2018-05-06T22:19:27.047Z,45.86
2018-05-06T22:21:55.515Z,46.47
2018-05-06T22:24:24.598Z,46.80
2018-05-06T22:26:53.566Z,47.54
2018-05-06T22:29:21.867Z,46.48
2018-05-06T22:31:50.252Z,47.59
2018-05-06T22:34:18.612Z,47.73
2018-05-06T22:36:47.862Z,47.11
2018-05-06T22:39:16.734Z,48.56
2018-05-06T22:41:45.183Z,48.35
2018-05-06T22:44:13.319Z,49.15
2018-05-06T22:46:42.392Z,48.39
2018-05-06T22:49:10.678Z,49.24
2018-05-06T22:51:39.026Z,50.61
2018-05-06T22:54:07.880Z,49.24
2018-05-06T22:56:36.735Z,50.95
2018-05-06T22:59:05.371Z,50.19
2018-05-06T23:01:33.887Z,49.10
2018-05-06T23:04:02.164Z,49.10
2018-05-06T23:06:31.170Z,49.55
2018-05-06T23:08:59.750Z,49.16
2018-05-06T23:11:28.030Z,48.92
2018-05-06T23:13:56.311Z,50.22
2018-05-06T23:16:24.702Z,48.47
2018-05-06T23:18:53.224Z,50.42
2018-05-06T23:21:21.996Z,50.84
2018-05-06T23:23:51.311Z,51.14
2018-05-06T23:26:19.619Z,50.17
2018-05-06T23:28:48.185Z,50.29
2018-05-06T23:31:16.778Z,50.04
2018-05-06T23:33:45.058Z,49.88
2018-05-06T23:36:13.495Z,51.56
2018-05-06T23:38:43.479Z,50.84
2018-05-06T23:41:12.873Z,51.35
2018-05-06T23:43:41.162Z,52.28
2018-05-06T23:46:09.600Z,54.33
2018-05-06T23:48:38.036Z,54.66
2018-05-06T23:51:07.435Z,54.38
2018-05-06T23:53:36.939Z,55.54
2018-05-06T23:56:05.707Z,54.02
2018-05-06T23:58:35.086Z,54.23
